createdAt,value
2023-01-22T00:01:08.465Z,91.21
2023-01-22T00:03:36.104Z,91.59
2023-01-22T00:06:02.958Z,91.51
2023-01-22T00:08:29.810Z,91.47
2023-01-22T00:10:56.592Z,91.27
2023-01-22T00:13:23.893Z,91.14
2023-01-22T00:15:50.994Z,91.20
2023-01-22T00:18:18.180Z,91.01
2023-01-22T00:20:48.468Z,91.39
2023-01-22T00:23:15.133Z,90.97
2023-01-22T00:25:41.864Z,90.82
2023-01-22T00:28:08.769Z,90.77
2023-01-22T00:30:35.485Z,90.51
2023-01-22T00:33:02.302Z,90.59
2023-01-22T00:35:28.891Z,90.66
2023-01-22T00:37:58.686Z,90.77
2023-01-22T00:40:25.187Z,91.04
2023-01-22T00:42:52.519Z,91.01
2023-01-22T00:45:21.883Z,91.07
2023-01-22T00:47:48.587Z,91.22
2023-01-22T00:50:16.037Z,91.43
2023-01-22T00:52:42.773Z,91.48
2023-01-22T00:55:09.370Z,91.33
2023-01-22T00:57:36.100Z,91.02
2023-01-22T01:00:03.366Z,90.78
2023-01-22T01:02:30.078Z,90.35
2023-01-22T01:04:57.014Z,90.56
2023-01-22T01:07:23.757Z,90.45
2023-01-22T01:09:54.081Z,90.69
2023-01-22T01:12:20.839Z,90.82
2023-01-22T01:14:47.421Z,90.83
2023-01-22T01:17:13.958Z,91.01
2023-01-22T01:19:40.548Z,90.95
2023-01-22T01:22:07.576Z,91.23
2023-01-22T01:24:35.956Z,90.94
2023-01-22T01:27:02.950Z,91.14
2023-01-22T01:29:29.542Z,91.05
2023-01-22T01:31:57.337Z,91.09
2023-01-22T01:34:24.437Z,91.20
2023-01-22T01:36:51.096Z,90.95
2023-01-22T01:39:18.444Z,90.90
2023-01-22T01:41:46.637Z,90.61
2023-01-22T01:44:15.523Z,90.73
2023-01-22T01:46:45.728Z,90.52
2023-01-22T01:49:31.746Z,90.30
2023-01-22T01:52:00.617Z,90.63
2023-01-22T01:54:27.433Z,90.63
2023-01-22T01:56:56.975Z,90.56
2023-01-22T01:59:23.859Z,90.97
2023-01-22T02:01:53.140Z,90.51
2023-01-22T02:04:20.043Z,90.46
2023-01-22T02:06:47.059Z,90.40
2023-01-22T02:09:13.969Z,90.17
2023-01-22T02:11:40.664Z,89.98
2023-01-22T02:14:17.611Z,90.33
2023-01-22T02:16:44.319Z,90.10
2023-01-22T02:19:11.015Z,90.05
2023-01-22T02:21:40.125Z,89.98
2023-01-22T02:24:11.743Z,89.90
2023-01-22T02:26:39.353Z,89.79
2023-01-22T02:29:07.451Z,89.39
2023-01-22T02:31:37.309Z,89.65
2023-01-22T02:34:05.253Z,89.65
2023-01-22T02:36:33.493Z,89.73
2023-01-22T02:39:00.214Z,89.90
2023-01-22T02:41:26.920Z,89.64
2023-01-22T02:43:53.595Z,89.76
2023-01-22T02:46:21.734Z,89.99
2023-01-22T02:48:49.734Z,90.01
2023-01-22T02:51:16.581Z,89.94
2023-01-22T02:53:44.495Z,89.60
2023-01-22T02:56:11.483Z,89.30
2023-01-22T02:58:39.157Z,88.89
2023-01-22T03:01:20.983Z,88.91
2023-01-22T03:03:55.662Z,88.63
2023-01-22T03:06:25.591Z,88.60
2023-01-22T03:08:56.878Z,88.86
2023-01-22T03:11:24.497Z,89.02
2023-01-22T03:14:11.215Z,89.08
2023-01-22T03:16:56.989Z,89.27
2023-01-22T03:19:42.782Z,89.42
2023-01-22T03:22:15.072Z,89.61
2023-01-22T03:24:43.142Z,89.74
2023-01-22T03:27:10.340Z,89.05
2023-01-22T03:29:37.725Z,88.65
2023-01-22T03:32:06.283Z,88.70
2023-01-22T03:34:35.182Z,88.42
2023-01-22T03:37:04.279Z,88.26
2023-01-22T03:39:34.614Z,88.19
2023-01-22T03:42:02.377Z,88.06
2023-01-22T03:44:29.607Z,87.94
2023-01-22T03:46:56.493Z,87.85
2023-01-22T03:49:23.687Z,87.56
2023-01-22T03:51:52.207Z,87.45
2023-01-22T03:54:21.102Z,87.63
2023-01-22T03:56:48.129Z,87.63
2023-01-22T03:59:20.487Z,87.72
2023-01-22T04:01:47.256Z,87.94
2023-01-22T04:04:13.937Z,87.95
2023-01-22T04:06:42.699Z,87.81
2023-01-22T04:09:09.633Z,87.89
2023-01-22T04:11:45.681Z,87.91
2023-01-22T04:14:14.278Z,87.67
2023-01-22T04:16:47.258Z,87.93
2023-01-22T04:19:34.745Z,87.86
2023-01-22T04:22:20.053Z,88.00
2023-01-22T04:24:48.761Z,87.86
2023-01-22T04:27:15.812Z,87.96
2023-01-22T04:29:42.445Z,87.84
2023-01-22T04:32:08.994Z,87.88
2023-01-22T04:35:03.459Z,88.04
2023-01-22T04:37:37.567Z,87.85
2023-01-22T04:40:05.136Z,87.94
2023-01-22T04:42:34.236Z,88.27
2023-01-22T04:45:00.975Z,88.13
2023-01-22T04:47:29.741Z,88.47
2023-01-22T04:49:56.309Z,88.30
2023-01-22T04:52:22.946Z,88.23
2023-01-22T04:54:51.508Z,88.43
2023-01-22T04:57:18.160Z,88.61
2023-01-22T04:59:44.987Z,88.69
2023-01-22T05:02:11.871Z,88.82
2023-01-22T05:04:38.629Z,88.92
2023-01-22T05:07:06.019Z,89.08
2023-01-22T05:09:32.770Z,89.22
2023-01-22T05:12:00.423Z,89.34
2023-01-22T05:14:31.170Z,89.54
2023-01-22T05:16:58.507Z,89.53
2023-01-22T05:19:25.214Z,89.70
2023-01-22T05:21:53.286Z,89.84
2023-01-22T05:24:20.018Z,89.85
2023-01-22T05:26:46.614Z,89.96
2023-01-22T05:29:18.257Z,89.94
2023-01-22T05:31:57.603Z,89.90
2023-01-22T05:34:29.560Z,90.01
2023-01-22T05:36:56.635Z,90.15
2023-01-22T05:39:25.429Z,90.14
2023-01-22T05:41:53.990Z,90.16
2023-01-22T05:44:20.685Z,90.29
2023-01-22T05:46:52.071Z,90.38
2023-01-22T05:49:26.254Z,90.28
2023-01-22T05:51:56.704Z,89.98
2023-01-22T05:54:23.444Z,89.67
2023-01-22T05:56:50.627Z,89.61
2023-01-22T05:59:18.057Z,89.58
2023-01-22T06:01:51.412Z,89.71
2023-01-22T06:04:18.328Z,89.74
2023-01-22T06:06:46.494Z,89.71
2023-01-22T06:09:13.613Z,89.74
2023-01-22T07:20:33.545Z,90.36
2023-01-22T07:23:00.448Z,89.87
2023-01-22T07:25:27.462Z,90.07
2023-01-22T07:28:01.241Z,89.59
2023-01-22T07:30:28.568Z,88.66
2023-01-22T07:32:59.769Z,88.48
2023-01-22T07:35:27.825Z,88.69
2023-01-22T07:37:56.279Z,88.59
2023-01-22T07:40:23.947Z,88.64
2023-01-22T07:42:51.259Z,88.81
2023-01-22T07:45:19.104Z,89.07
2023-01-22T07:47:53.951Z,88.52
2023-01-22T07:50:21.617Z,88.05
2023-01-22T07:52:48.172Z,88.10
2023-01-22T07:55:14.715Z,87.92
2023-01-22T07:57:41.406Z,88.25
2023-01-22T08:00:12.277Z,88.58
2023-01-22T08:02:43.661Z,88.74
2023-01-22T08:05:10.618Z,88.77
2023-01-22T08:07:37.785Z,89.16
2023-01-22T08:10:05.232Z,89.11
2023-01-22T08:12:31.965Z,88.39
2023-01-22T08:14:58.574Z,87.86
2023-01-22T08:17:25.243Z,88.06
2023-01-22T08:19:51.891Z,87.77
2023-01-22T08:22:18.565Z,87.75
2023-01-22T08:24:45.181Z,87.70
2023-01-22T08:27:11.795Z,87.34
2023-01-22T08:29:39.837Z,87.21
2023-01-22T08:32:06.921Z,86.81
2023-01-22T08:34:33.792Z,86.65
2023-01-22T08:37:00.318Z,86.71
2023-01-22T08:39:27.699Z,86.84
2023-01-22T08:41:58.210Z,87.01
2023-01-22T08:44:25.124Z,87.22
2023-01-22T08:46:51.886Z,86.94
2023-01-22T08:49:20.727Z,86.52
2023-01-22T08:51:48.033Z,86.56
2023-01-22T08:54:19.214Z,86.74
2023-01-22T08:56:47.417Z,86.32
2023-01-22T08:59:14.538Z,85.99
2023-01-22T09:01:41.315Z,86.09
2023-01-22T09:04:08.795Z,85.91
2023-01-22T09:06:36.458Z,86.40
2023-01-22T09:09:03.291Z,86.89
2023-01-22T09:11:30.840Z,87.26
2023-01-22T09:13:58.234Z,86.98
2023-01-22T09:16:25.759Z,87.06
2023-01-22T09:18:52.993Z,87.11
2023-01-22T09:21:19.720Z,87.20
2023-01-22T09:23:46.302Z,87.29
2023-01-22T09:26:13.189Z,87.53
2023-01-22T09:28:40.068Z,87.53
2023-01-22T09:31:06.805Z,88.01
2023-01-22T09:33:33.749Z,88.40
2023-01-22T09:36:10.745Z,88.19
2023-01-22T09:38:37.800Z,88.15
2023-01-22T09:41:18.958Z,88.03
2023-01-22T09:43:54.699Z,87.56
2023-01-22T09:46:28.293Z,87.78
2023-01-22T09:49:09.990Z,87.69
2023-01-22T09:51:37.090Z,87.79
2023-01-22T09:54:04.121Z,87.93
2023-01-22T09:56:45.281Z,88.02
2023-01-22T09:59:32.070Z,87.39
2023-01-22T10:02:03.789Z,87.13
2023-01-22T10:04:38.972Z,86.63
2023-01-22T10:07:08.452Z,86.68
2023-01-22T10:09:39.323Z,86.56
2023-01-22T10:12:12.239Z,86.92
2023-01-22T10:14:39.206Z,87.30
2023-01-22T10:17:15.437Z,87.30
2023-01-22T10:19:43.754Z,87.10
2023-01-22T10:22:18.107Z,87.24
2023-01-22T10:24:44.633Z,87.58
2023-01-22T10:27:13.223Z,87.31
2023-01-22T10:29:40.026Z,87.43
2023-01-22T10:32:24.750Z,87.49
2023-01-22T10:35:10.317Z,87.09
2023-01-22T10:37:45.138Z,86.99
2023-01-22T10:40:22.727Z,87.28
2023-01-22T10:43:00.475Z,87.33
2023-01-22T10:45:27.373Z,87.77
2023-01-22T10:48:12.635Z,87.88
2023-01-22T10:50:39.657Z,88.02
2023-01-22T10:53:20.445Z,88.31
2023-01-22T10:55:55.086Z,88.11
2023-01-22T10:58:23.805Z,87.86
2023-01-22T11:00:59.275Z,87.95
2023-01-22T11:03:32.207Z,88.09
2023-01-22T11:06:30.293Z,87.94
2023-01-22T11:09:30.805Z,87.94
2023-01-22T11:12:02.870Z,87.61
2023-01-22T11:14:34.030Z,87.17
2023-01-22T11:17:15.180Z,86.82
2023-01-22T11:19:46.291Z,86.94
2023-01-22T11:22:32.815Z,86.90
2023-01-22T11:24:59.884Z,86.87
2023-01-22T11:27:31.031Z,87.10
2023-01-22T11:30:07.019Z,87.03
2023-01-22T11:32:38.332Z,86.96
2023-01-22T11:35:05.075Z,86.89
2023-01-22T11:38:11.047Z,86.72
2023-01-22T11:40:59.744Z,86.75
2023-01-22T11:43:45.583Z,87.14
2023-01-22T11:46:21.104Z,87.29
2023-01-22T11:48:53.782Z,87.63
2023-01-22T11:51:37.868Z,88.09
2023-01-22T11:54:21.838Z,87.81
2023-01-22T11:56:59.555Z,87.17
2023-01-22T11:59:46.979Z,87.19
2023-01-22T12:02:38.559Z,87.27
2023-01-22T12:05:25.045Z,87.39
2023-01-22T12:08:17.316Z,87.72
2023-01-22T12:10:52.940Z,87.86
2023-01-22T12:13:46.738Z,87.44
2023-01-22T12:16:26.160Z,87.01
2023-01-22T12:18:52.637Z,86.95
2023-01-22T12:21:22.279Z,86.76
2023-01-22T12:23:59.059Z,87.12
2023-01-22T12:26:29.220Z,87.29
2023-01-22T12:29:01.982Z,87.43
2023-01-22T12:31:34.003Z,87.60
2023-01-22T12:34:02.649Z,87.70
2023-01-22T12:36:32.430Z,87.38
2023-01-22T12:39:00.718Z,87.40
2023-01-22T12:41:32.654Z,87.35
2023-01-22T12:44:06.017Z,87.47
2023-01-22T12:46:38.808Z,87.68
2023-01-22T12:49:07.962Z,87.87
2023-01-22T12:51:39.575Z,87.65
2023-01-22T12:54:29.978Z,87.40
2023-01-22T12:57:20.823Z,86.94
2023-01-22T12:59:52.235Z,86.63
2023-01-22T13:02:25.791Z,86.69
2023-01-22T13:04:53.203Z,86.95
2023-01-22T13:07:21.124Z,87.39
2023-01-22T13:09:48.525Z,87.26
2023-01-22T13:12:26.387Z,87.46
2023-01-22T13:14:53.296Z,87.66
2023-01-22T13:17:24.512Z,87.80
2023-01-22T13:19:51.336Z,87.64
2023-01-22T13:22:23.303Z,87.78
2023-01-22T13:24:53.123Z,87.70
2023-01-22T13:27:25.726Z,87.13
2023-01-22T13:29:52.393Z,86.54
2023-01-22T13:32:21.432Z,86.55
2023-01-22T13:34:48.578Z,86.34
2023-01-22T13:37:26.077Z,86.48
2023-01-22T13:39:54.224Z,87.03
2023-01-22T13:42:23.921Z,87.35
2023-01-22T13:44:51.010Z,87.51
2023-01-22T13:47:31.467Z,87.61
2023-01-22T13:49:58.203Z,87.30
2023-01-22T13:52:24.956Z,87.41
2023-01-22T13:55:04.819Z,87.46
2023-01-22T13:57:32.618Z,87.14
2023-01-22T14:00:00.596Z,87.05
2023-01-22T14:02:34.044Z,87.29
2023-01-22T14:05:00.771Z,87.04
2023-01-22T14:07:32.304Z,86.86
2023-01-22T14:10:21.436Z,86.50
2023-01-22T14:13:16.189Z,86.64
2023-01-22T14:15:53.826Z,86.73
2023-01-22T14:18:21.138Z,86.73
2023-01-22T14:20:48.089Z,87.10
2023-01-22T14:23:15.137Z,87.53
2023-01-22T14:25:46.813Z,87.59
2023-01-22T14:28:14.067Z,87.70
2023-01-22T14:30:41.112Z,87.45
2023-01-22T14:33:24.204Z,87.53
2023-01-22T14:35:51.939Z,87.57
2023-01-22T14:38:18.701Z,87.92
2023-01-22T14:40:45.442Z,88.34
2023-01-22T14:43:12.333Z,88.42
2023-01-22T14:45:42.731Z,88.48
2023-01-22T14:48:16.303Z,88.84
2023-01-22T14:50:43.393Z,88.69
2023-01-22T14:53:10.623Z,88.66
2023-01-22T14:55:37.453Z,88.58
2023-01-22T14:58:05.539Z,88.38
2023-01-22T15:00:32.694Z,88.26
2023-01-22T15:02:59.429Z,87.94
2023-01-22T15:05:26.403Z,87.77
2023-01-22T15:07:53.063Z,87.42
2023-01-22T15:10:20.107Z,87.22
2023-01-22T15:12:48.749Z,87.07
2023-01-22T15:15:16.052Z,87.25
2023-01-22T15:17:42.694Z,87.18
2023-01-22T15:20:10.279Z,87.01
2023-01-22T15:22:37.286Z,87.02
2023-01-22T15:25:05.121Z,86.62
2023-01-22T15:27:32.138Z,86.86
2023-01-22T15:29:59.298Z,87.25
2023-01-22T15:32:26.128Z,87.33
2023-01-22T15:34:52.798Z,87.35
2023-01-22T15:37:19.360Z,87.53
2023-01-22T15:39:50.350Z,87.29
2023-01-22T15:42:17.397Z,86.85
2023-01-22T15:44:44.440Z,86.73
2023-01-22T15:47:14.011Z,86.76
2023-01-22T15:49:40.791Z,86.81
2023-01-22T15:52:07.634Z,86.95
2023-01-22T15:54:34.472Z,86.52
2023-01-22T15:57:01.650Z,86.04
2023-01-22T15:59:28.635Z,86.12
2023-01-22T16:01:55.518Z,86.37
2023-01-22T16:04:22.869Z,86.91
2023-01-22T16:06:51.459Z,87.44
2023-01-22T16:09:18.397Z,87.64
2023-01-22T16:11:45.412Z,88.00
2023-01-22T16:14:12.498Z,88.33
2023-01-22T16:16:39.771Z,88.53
2023-01-22T16:19:07.306Z,88.29
2023-01-22T16:21:34.464Z,88.02
2023-01-22T16:24:01.308Z,87.72
2023-01-22T16:26:29.910Z,88.15
2023-01-22T16:28:57.553Z,88.50
2023-01-22T16:31:27.254Z,88.32
2023-01-22T16:33:55.695Z,88.28
2023-01-22T16:36:24.109Z,87.72
2023-01-22T16:38:51.412Z,87.63
2023-01-22T16:41:24.512Z,87.79
2023-01-22T16:43:57.212Z,87.73
2023-01-22T16:46:25.540Z,88.08
2023-01-22T16:49:03.108Z,88.22
2023-01-22T16:51:34.458Z,88.01
2023-01-22T16:54:01.301Z,88.17
2023-01-22T16:56:28.366Z,87.80
2023-01-22T16:58:55.384Z,87.48
2023-01-22T17:01:22.124Z,87.67
2023-01-22T17:03:49.233Z,87.82
2023-01-22T17:06:28.244Z,87.36
2023-01-22T17:08:55.077Z,87.10
2023-01-22T17:11:22.298Z,86.76
2023-01-22T17:13:49.342Z,86.98
2023-01-22T17:16:16.318Z,87.27
2023-01-22T17:18:43.901Z,87.40
2023-01-22T17:21:16.325Z,87.54
2023-01-22T17:23:43.468Z,87.65
2023-01-22T17:26:11.743Z,87.78
2023-01-22T17:28:39.305Z,87.89
2023-01-22T17:31:07.503Z,87.86
2023-01-22T17:33:35.139Z,87.37
2023-01-22T17:36:03.418Z,87.30
2023-01-22T17:38:32.305Z,87.61
2023-01-22T17:41:10.259Z,87.81
2023-01-22T17:43:38.181Z,87.67
2023-01-22T17:46:11.406Z,87.42
2023-01-22T17:48:40.377Z,87.37
2023-01-22T17:51:07.837Z,87.27
2023-01-22T17:53:37.663Z,87.52
2023-01-22T17:56:08.143Z,87.55
2023-01-22T17:58:34.878Z,87.82
2023-01-22T18:01:07.965Z,87.99
2023-01-22T18:03:35.443Z,88.23
2023-01-22T20:21:33.154Z,88.46
2023-01-22T20:24:00.201Z,87.61
2023-01-22T20:26:27.153Z,87.40
2023-01-22T20:28:54.161Z,86.93
2023-01-22T20:31:23.473Z,86.58
2023-01-22T20:33:54.859Z,86.48
2023-01-22T20:36:22.120Z,86.58
2023-01-22T20:38:52.568Z,86.22
2023-01-22T20:41:20.100Z,85.85
2023-01-22T20:43:47.229Z,85.93
2023-01-22T20:46:18.480Z,86.09
2023-01-22T20:48:46.138Z,86.08
2023-01-22T20:51:15.845Z,85.77
2023-01-22T20:53:43.721Z,85.19
2023-01-22T20:56:13.452Z,85.75
2023-01-22T20:58:40.326Z,85.54
2023-01-22T21:01:19.329Z,85.58
2023-01-22T21:03:47.481Z,85.54
2023-01-22T21:06:16.664Z,85.48
2023-01-22T21:08:43.937Z,85.66
2023-01-22T21:11:12.406Z,85.55
2023-01-22T21:13:39.655Z,85.96
2023-01-22T21:16:18.692Z,85.60
2023-01-22T21:18:46.419Z,84.94
2023-01-22T21:21:17.905Z,84.98
2023-01-22T21:23:46.189Z,85.05
2023-01-22T21:26:15.444Z,85.21
2023-01-22T21:28:42.519Z,85.02
2023-01-22T21:31:11.337Z,85.44
2023-01-22T21:33:38.678Z,85.13
2023-01-22T21:36:06.700Z,85.51
2023-01-22T21:38:33.977Z,85.65
2023-01-22T21:41:05.209Z,85.41
2023-01-22T21:43:50.763Z,85.56
2023-01-22T21:46:25.321Z,85.14
2023-01-22T21:49:01.174Z,85.65
2023-01-22T21:51:29.251Z,85.45
2023-01-22T21:53:56.941Z,85.20
2023-01-22T21:56:24.065Z,85.23
2023-01-22T21:58:50.891Z,85.05
2023-01-22T22:01:19.305Z,84.88
2023-01-22T22:03:46.123Z,85.08
2023-01-22T22:06:13.520Z,85.25
2023-01-22T22:08:43.316Z,85.12
2023-01-22T22:11:10.924Z,85.22
2023-01-22T22:13:38.105Z,85.20
2023-01-22T22:16:06.991Z,85.44
2023-01-22T22:18:34.047Z,85.66
2023-01-22T22:21:03.601Z,85.63
2023-01-22T22:23:30.890Z,85.26
2023-01-22T22:25:57.924Z,85.80
2023-01-22T22:28:25.075Z,85.94
2023-01-22T22:30:51.964Z,86.29
2023-01-22T22:33:19.076Z,86.38
2023-01-22T22:35:46.614Z,86.50
2023-01-22T22:38:14.193Z,86.81
2023-01-22T22:40:41.159Z,86.92
2023-01-22T22:43:09.012Z,86.90
2023-01-22T22:45:37.744Z,86.43
2023-01-22T22:48:05.482Z,86.00
2023-01-22T22:50:32.425Z,86.10
2023-01-22T22:52:59.263Z,86.34
2023-01-22T22:55:28.695Z,86.07
2023-01-22T22:57:55.728Z,86.13
2023-01-22T23:00:23.268Z,86.38
2023-01-22T23:02:50.727Z,86.69
2023-01-22T23:05:17.575Z,86.85
2023-01-22T23:07:44.347Z,86.72
2023-01-22T23:10:28.862Z,86.62
2023-01-22T23:12:57.655Z,86.60
2023-01-22T23:15:25.938Z,86.52
2023-01-22T23:17:54.189Z,86.14
2023-01-22T23:20:21.517Z,86.20
2023-01-22T23:22:49.760Z,85.72
2023-01-22T23:25:17.131Z,85.55
2023-01-22T23:27:44.263Z,85.18
2023-01-22T23:30:12.415Z,84.76
2023-01-22T23:32:39.777Z,84.40
2023-01-22T23:35:06.975Z,83.55
2023-01-22T23:37:33.843Z,83.03
2023-01-22T23:40:00.709Z,82.45
2023-01-22T23:42:27.651Z,81.82
2023-01-22T23:44:54.493Z,82.07
2023-01-22T23:47:24.614Z,82.51
2023-01-22T23:49:51.937Z,83.00
2023-01-22T23:52:18.787Z,82.85
2023-01-22T23:54:45.650Z,82.92
2023-01-22T23:57:12.461Z,82.85
2023-01-22T23:59:39.338Z,82.09
